Strona główna
METAR-TAF:

METAR-TAF

Lotnisko :

Army Air Corps Middle Wallop

Middle Wallop, Anglia

Szerokość geograficzna: 51-09N, Długość geograficzna: 001-34W, wysokość: 91 m

Aktualna obserwacja pogody

Raport powstał 44 minut temu, godzina 00:50 UTC
Wiatr 3 kt od południowo-południowy wschód
Temperatura -2°C
Wilgotność 100%
Ciśnienie 1044 hPa
Widzialność: 0200 m

METAR: EGVP 210050Z AUTO 16003KT 0200 // SCT001/// M02/M02 Q1044

czas: 01:34 (01:34 UTC)

Prognoza

Raport powstał 9 godziny i 7 minut temu, godzina 16:27 UTC
Prognoza ważna od 20 godzina 18 UTC do 20 godzina 23 UTC
Wiatr 3 kt z kierunków zmiennych
Widzialność 10 km lub więcej
Brak chmur poniżej 1500 m i brak chmur cumulonimbus
Stopniowe zmiany
od 20 godzina 18 UTC do 20 godzina 21 UTC
Widzialność: 5000 m
zamglenie
Prawdopodobieństwo 30%
od 20 godzina 20 UTC do 20 godzina 23 UTC
Widzialność: 2500 m
zamglenie, Płytka mgła

TAF: EGVP 201627Z 2018/2023 VRB03KT CAVOK BECMG 2018/2021 5000 BR PROB30 2020/2023 2500 BR MIFG

Obserwacja i prognoza pogody dla ponad 4000 lotnisk (raport METAR i TAF).

Dostępne stacje oznaczono żółtymi i czerwonymi punktami na mapie.

Najedź kursorem aby zobaczyć nazwę stacji.

Kliknij aby zobaczyć obserwacje i prognozy pogody.

Aby zmienić mapę: kliknij na zielony przycisk z czarnym krzyżykiem, aby powiększyć; na zielony przycisk z myślnikiem, aby pomniejszyć; na zielone strzałki, aby przejść do map sąsiednich.


METAR-TAF: